Time;durP1;ratioP1;P1;durP2;ratioP2;P2;SDS_P1;SDS_P2;PMS_P1;PMS_P2;Temp;Humidity;BMP_temperature;BMP_pressure;BME280_temperature;BME280_humidity;BME280_pressure;Samples;Min_cycle;Max_cycle;Signal;HPM_P1;HPM_P2
2023/07/08 00:00:19;;;;;;;;;10.00;8.75;;;;;26.35;41.18;100531.22;5117847;27;45374;-80
2023/07/08 00:02:45;;;;;;;;;13.00;10.25;;;;;26.40;41.57;100541.56;5117483;27;46402;-80
2023/07/08 00:05:13;;;;;;;;;11.00;10.00;;;;;26.41;41.80;100546.81;5118763;27;45253;-81
2023/07/08 00:07:39;;;;;;;;;12.50;10.00;;;;;26.39;42.11;100532.53;5117354;27;45319;-81
2023/07/08 00:10:20;;;;;;;;;9.00;7.00;;;;;26.38;41.03;100544.50;5118786;27;45475;-80
2023/07/08 00:12:48;;;;;;;;;9.75;9.00;;;;;26.35;41.84;100541.28;5117085;27;47353;-82
2023/07/08 00:15:15;;;;;;;;;10.60;10.20;;;;;26.29;41.89;100537.41;5118844;27;45520;-78
2023/07/08 00:17:41;;;;;;;;;10.25;8.25;;;;;26.36;42.48;100560.19;5118725;27;45373;-80
2023/07/08 00:20:12;;;;;;;;;9.25;9.00;;;;;26.39;42.02;100567.16;5118616;27;45597;-80
2023/07/08 00:22:38;;;;;;;;;13.75;12.50;;;;;26.39;41.88;100573.44;5118188;27;45268;-80
2023/07/08 00:25:04;;;;;;;;;9.00;9.00;;;;;26.36;42.11;100564.81;5118146;27;45595;-80
2023/07/08 00:27:30;;;;;;;;;13.50;10.50;;;;;26.33;42.38;100568.72;5118404;27;45482;-80
2023/07/08 00:29:55;;;;;;;;;28.75;25.00;;;;;26.26;43.61;100572.38;5118529;27;45570;-80
2023/07/08 00:32:20;;;;;;;;;28.50;25.25;;;;;26.14;44.20;100583.75;5117762;27;55206;-81
2023/07/08 00:34:46;;;;;;;;;30.33;26.33;;;;;25.91;44.04;100560.31;5116327;27;58140;-80
2023/07/08 00:37:12;;;;;;;;;29.33;27.67;;;;;25.85;44.18;100540.97;5118096;27;45424;-80
2023/07/08 00:39:38;;;;;;;;;29.25;24.00;;;;;26.08;43.99;100580.94;5118197;27;45380;-80
2023/07/08 00:42:15;;;;;;;;;32.75;25.00;;;;;26.05;44.19;100589.50;5117992;27;46148;-81
2023/07/08 00:44:41;;;;;;;;;28.50;24.50;;;;;26.04;43.65;100591.38;5118506;27;45199;-82
2023/07/08 00:47:13;;;;;;;;;34.25;28.75;;;;;26.07;44.37;100593.72;5117868;27;45428;-81
2023/07/08 00:49:49;;;;;;;;;19.50;18.00;;;;;26.02;43.28;100589.84;5119487;27;45450;-80
2023/07/08 00:52:20;;;;;;;;;11.25;10.25;;;;;26.06;43.14;100594.75;5118626;27;45389;-80
2023/07/08 00:54:50;;;;;;;;;12.25;12.25;;;;;26.00;42.88;100576.41;5118023;27;45319;-80
2023/07/08 00:57:15;;;;;;;;;11.50;11.50;;;;;26.03;42.94;100577.91;5118003;27;45343;-81
2023/07/08 00:59:47;;;;;;;;;15.00;10.25;;;;;26.06;42.62;100583.84;5118081;27;45520;-80
2023/07/08 01:02:17;;;;;;;;;9.60;8.60;;;;;26.12;42.69;100590.44;5117824;27;45412;-79
2023/07/08 01:04:51;;;;;;;;;9.25;9.25;;;;;26.09;42.88;100580.75;5116310;27;45404;-80
2023/07/08 01:07:21;;;;;;;;;12.00;10.00;;;;;26.12;42.56;100579.53;5118172;27;45225;-79
2023/07/08 01:09:51;;;;;;;;;8.50;7.50;;;;;25.98;42.37;100553.97;5116736;27;45428;-79
2023/07/08 01:12:22;;;;;;;;;8.50;7.50;;;;;26.07;42.22;100571.91;5117645;27;45342;-78
2023/07/08 01:14:49;;;;;;;;;12.50;12.50;;;;;26.02;42.14;100568.03;5117130;27;45816;-81
2023/07/08 01:17:14;;;;;;;;;13.00;11.50;;;;;25.91;42.58;100561.19;5116309;27;45518;-80
2023/07/08 01:19:42;;;;;;;;;9.75;9.75;;;;;25.83;42.44;100559.41;5116171;27;45557;-79
2023/07/08 01:22:07;;;;;;;;;10.00;10.00;;;;;25.98;42.32;100583.94;5117302;27;46083;-80
2023/07/08 01:24:36;;;;;;;;;11.00;10.00;;;;;26.00;42.47;100600.09;5117635;27;45606;-80
2023/07/08 01:27:04;;;;;;;;;10.25;10.25;;;;;25.98;42.71;100597.56;5116112;27;45444;-83
2023/07/08 01:29:30;;;;;;;;;8.25;8.25;;;;;25.94;42.79;100587.22;5117667;27;45542;-80
2023/07/08 01:32:02;;;;;;;;;12.50;11.00;;;;;25.92;42.93;100583.84;5117311;27;45613;-80
2023/07/08 01:34:31;;;;;;;;;13.25;13.25;;;;;25.92;42.62;100583.84;5116295;27;45482;-83
2023/07/08 01:36:59;;;;;;;;;21.50;17.50;;;;;25.78;42.81;100567.28;5117356;27;45397;-80
2023/07/08 01:39:28;;;;;;;;;25.50;23.50;;;;;25.88;42.20;100592.38;5117853;27;45421;-80
2023/07/08 01:41:55;;;;;;;;;35.00;28.67;;;;;25.75;42.42;100581.25;5115774;27;48049;-80
2023/07/08 01:44:34;;;;;;;;;34.33;31.67;;;;;25.82;42.69;100605.91;5115651;27;45806;-80
2023/07/08 01:47:10;;;;;;;;;38.67;33.67;;;;;25.79;42.62;100609.84;5117358;27;45258;-80
2023/07/08 01:49:39;;;;;;;;;40.33;34.67;;;;;25.74;42.60;100609.53;5117325;27;45345;-79
2023/07/08 01:52:07;;;;;;;;;43.33;34.67;;;;;25.71;42.72;100636.31;5116913;27;45424;-80
2023/07/08 01:54:32;;;;;;;;;30.25;28.25;;;;;25.69;43.12;100710.03;5116809;27;45269;-82
2023/07/08 01:56:58;;;;;;;;;22.25;21.00;;;;;25.30;43.31;100644.75;5117312;27;45844;-79
2023/07/08 01:59:24;;;;;;;;;17.50;15.75;;;;;25.63;43.56;100701.69;5117210;27;45251;-82
2023/07/08 02:01:54;;;;;;;;;14.25;12.25;;;;;25.57;43.58;100706.00;5116754;27;45494;-79
2023/07/08 02:04:19;;;;;;;;;9.50;9.25;;;;;25.60;43.60;100711.06;5115492;27;45796;-80
2023/07/08 02:06:54;;;;;;;;;9.50;8.00;;;;;25.54;43.41;100703.66;5117199;27;45321;-80
2023/07/08 02:09:20;;;;;;;;;10.00;9.25;;;;;25.38;44.05;100681.94;5117172;27;45312;-81
2023/07/08 02:11:46;;;;;;;;;10.25;8.75;;;;;25.49;44.44;100709.59;5116900;27;45313;-81
2023/07/08 02:14:11;;;;;;;;;11.25;7.50;;;;;25.55;44.29;100719.81;5117297;27;45527;-80
2023/07/08 02:16:36;;;;;;;;;9.00;9.00;;;;;25.53;44.39;100712.84;5117118;27;45431;-80
2023/07/08 02:19:02;;;;;;;;;6.00;5.00;;;;;25.55;44.50;100718.94;5115868;27;45562;-81
2023/07/08 02:21:30;;;;;;;;;7.75;6.75;;;;;25.56;44.38;100709.75;5117030;27;46475;-79
2023/07/08 02:23:56;;;;;;;;;6.25;6.25;;;;;25.34;45.40;100680.63;5116516;27;45466;-81
2023/07/08 02:26:22;;;;;;;;;6.25;6.25;;;;;25.34;45.38;100672.44;5119239;27;45369;-79
2023/07/08 02:28:47;;;;;;;;;7.75;7.75;;;;;25.51;46.30;100701.25;5119913;27;50971;-79
2023/07/08 02:31:12;;;;;;;;;5.50;5.50;;;;;25.43;45.88;100691.28;5120007;27;46128;-80
2023/07/08 02:33:37;;;;;;;;;5.75;5.75;;;;;25.44;46.44;100692.97;5119059;27;45372;-79
2023/07/08 02:36:03;;;;;;;;;5.25;5.25;;;;;25.42;46.04;100683.31;5121223;27;45445;-79
2023/07/08 02:38:28;;;;;;;;;6.75;6.50;;;;;25.37;46.58;100664.75;5122021;27;45565;-79
2023/07/08 02:40:54;;;;;;;;;7.00;5.00;;;;;25.37;46.50;100672.09;5119945;27;47269;-81
2023/07/08 02:43:19;;;;;;;;;6.00;3.00;;;;;25.07;46.30;100630.25;5120592;27;45401;-81
2023/07/08 02:45:45;;;;;;;;;4.50;4.00;;;;;24.96;46.96;100620.59;5120429;27;45672;-81
2023/07/08 02:48:10;;;;;;;;;7.00;3.00;;;;;25.18;46.81;100673.41;5120558;27;45221;-83
2023/07/08 02:50:35;;;;;;;;;5.25;5.00;;;;;25.18;47.05;100668.81;5120125;27;47080;-80
2023/07/08 02:53:00;;;;;;;;;3.50;3.50;;;;;25.11;47.01;100662.38;5120724;27;45865;-80
2023/07/08 02:55:26;;;;;;;;;4.00;3.50;;;;;24.77;47.01;100600.13;5120011;27;45283;-80
2023/07/08 02:57:51;;;;;;;;;3.00;3.00;;;;;25.10;46.38;100646.22;5120196;27;45263;-80
2023/07/08 03:00:17;;;;;;;;;2.75;2.75;;;;;25.08;46.71;100660.00;5119574;27;46228;-81
2023/07/08 03:02:42;;;;;;;;;2.75;2.50;;;;;24.75;47.07;100607.63;5118492;27;45389;-80
2023/07/08 03:05:07;;;;;;;;;6.00;2.00;;;;;24.87;46.89;100627.97;5120001;27;45225;-79
2023/07/08 03:07:33;;;;;;;;;3.00;2.00;;;;;24.95;47.19;100637.94;5120089;27;45548;-81
2023/07/08 03:09:58;;;;;;;;;4.00;3.00;;;;;24.85;47.28;100642.75;5119362;27;45868;-80
2023/07/08 03:12:23;;;;;;;;;3.00;3.00;;;;;24.79;47.38;100646.19;5119625;27;45312;-80
2023/07/08 03:14:49;;;;;;;;;1.00;1.00;;;;;24.88;47.34;100664.19;5119594;27;45254;-79
2023/07/08 03:17:17;;;;;;;;;3.00;2.00;;;;;24.84;47.84;100654.66;5119873;27;45452;-79
2023/07/08 03:19:43;;;;;;;;;2.00;2.00;;;;;24.74;47.75;100634.97;5119177;27;45521;-79
2023/07/08 03:22:08;;;;;;;;;4.00;2.00;;;;;24.82;47.72;100645.81;5119290;27;45403;-81
2023/07/08 03:24:34;;;;;;;;;3.00;3.00;;;;;24.82;47.60;100641.22;5119780;27;45384;-80
2023/07/08 03:27:04;;;;;;;;;2.25;2.25;;;;;24.79;47.78;100632.59;5119529;27;45584;-79
2023/07/08 03:29:30;;;;;;;;;2.00;2.00;;;;;24.74;48.13;100626.81;5119103;27;45421;-78
2023/07/08 03:31:56;;;;;;;;;3.40;3.40;;;;;24.72;48.06;100635.16;5119141;27;45486;-80
2023/07/08 03:34:21;;;;;;;;;1.75;1.75;;;;;24.71;48.39;100638.91;5119151;27;45438;-80
2023/07/08 03:36:49;;;;;;;;;2.75;2.75;;;;;24.64;48.16;100625.19;5118949;27;45655;-79
2023/07/08 03:39:19;;;;;;;;;2.40;2.40;;;;;24.72;47.89;100629.72;5118833;27;45425;-79
2023/07/08 03:41:45;;;;;;;;;5.25;3.00;;;;;24.62;48.19;100605.47;5119047;27;45497;-79
2023/07/08 03:44:11;;;;;;;;;3.40;3.20;;;;;24.49;48.00;100599.75;5117774;27;45445;-79
2023/07/08 03:46:37;;;;;;;;;3.25;2.25;;;;;24.57;48.30;100598.84;5119394;27;45503;-79
2023/07/08 03:49:02;;;;;;;;;1.00;1.00;;;;;24.61;47.93;100589.31;5119064;27;45911;-81
2023/07/08 03:51:31;;;;;;;;;2.00;2.00;;;;;24.45;48.16;100573.91;5118973;27;45269;-79
2023/07/08 03:53:57;;;;;;;;;2.00;1.80;;;;;24.59;48.27;100592.19;5118855;27;45389;-79
2023/07/08 03:56:22;;;;;;;;;5.00;5.00;;;;;24.43;48.36;100554.22;5119203;27;45214;-80
2023/07/08 03:58:48;;;;;;;;;3.75;3.75;;;;;24.57;48.15;100580.66;5117377;27;46673;-80
2023/07/08 04:01:16;;;;;;;;;4.50;4.00;;;;;24.37;48.13;100550.34;5118598;27;45254;-82
2023/07/08 04:03:41;;;;;;;;;2.25;2.00;;;;;;;;5117313;27;45390;-79
2023/07/08 04:06:06;;;;;;;;;2.25;2.25;;;;;24.36;48.27;100555.97;5119254;27;45339;-81
2023/07/08 04:08:32;;;;;;;;;2.50;2.00;;;;;24.36;48.39;100554.09;5118471;27;45961;-80
2023/07/08 04:10:57;;;;;;;;;1.75;1.75;;;;;24.38;48.64;100545.75;5118578;27;45333;-81
2023/07/08 04:13:22;;;;;;;;;2.00;2.00;;;;;24.36;48.80;100547.81;5118616;27;45431;-81
2023/07/08 04:16:01;;;;;;;;;3.50;1.50;;;;;24.32;48.59;100551.88;5118906;27;45352;-80
2023/07/08 04:18:26;;;;;;;;;4.50;3.00;;;;;24.29;48.80;100542.19;5118421;27;45320;-79
2023/07/08 04:20:52;;;;;;;;;2.00;2.00;;;;;24.17;48.55;100521.84;5118552;27;45225;-80
2023/07/08 04:23:21;;;;;;;;;1.00;1.00;;;;;24.25;48.96;100529.97;5118665;27;45369;-80
2023/07/08 04:25:49;;;;;;;;;3.00;1.75;;;;;24.24;49.01;100535.59;5119015;27;45513;-81
2023/07/08 04:28:15;;;;;;;;;2.00;2.00;;;;;24.20;48.91;100536.94;5119053;27;46196;-80
2023/07/08 04:30:42;;;;;;;;;2.00;2.00;;;;;24.18;48.79;100534.41;5118363;27;45332;-78
2023/07/08 04:33:12;;;;;;;;;2.00;2.00;;;;;24.00;48.49;100515.63;5117752;27;45295;-80
2023/07/08 04:35:38;;;;;;;;;3.00;3.00;;;;;23.95;48.88;100511.72;5117676;27;45534;-79
2023/07/08 04:38:25;;;;;;;;;1.50;1.00;;;;;23.96;48.81;100527.00;5117301;27;46614;-80
2023/07/08 04:40:52;;;;;;;;;1.60;1.60;;;;;24.17;48.83;100578.06;5117551;27;45499;-82
2023/07/08 04:43:18;;;;;;;;;5.75;5.75;;;;;24.15;48.69;100570.09;5118280;27;45326;-80
2023/07/08 04:45:47;;;;;;;;;1.00;1.00;;;;;24.20;48.16;100564.97;5118591;27;45242;-82
2023/07/08 04:48:18;;;;;;;;;2.25;2.00;;;;;24.36;48.19;100575.84;5117060;27;46346;-80
2023/07/08 04:50:46;;;;;;;;;1.60;1.60;;;;;24.44;47.81;100579.53;5117951;27;45375;-80
2023/07/08 04:53:12;;;;;;;;;2.25;2.25;;;;;24.47;47.79;100577.31;5118024;27;45454;-80
2023/07/08 04:55:44;;;;;;;;;2.25;2.25;;;;;24.59;47.30;100580.47;5118702;27;45526;-81
2023/07/08 04:58:10;;;;;;;;;0.75;0.75;;;;;24.49;47.66;100564.41;5118174;27;46504;-81
2023/07/08 05:00:35;;;;;;;;;1.25;1.25;;;;;24.47;47.22;100563.72;5118032;27;45240;-80
2023/07/08 05:03:00;;;;;;;;;1.50;1.50;;;;;24.72;47.22;100610.66;5118004;27;45593;-80
2023/07/08 05:05:26;;;;;;;;;1.75;1.75;;;;;24.76;47.29;100617.47;5118188;27;45554;-81
2023/07/08 05:07:51;;;;;;;;;2.75;2.00;;;;;24.74;47.28;100616.81;5116543;27;48255;-81
2023/07/08 05:10:18;;;;;;;;;2.00;2.00;;;;;24.83;47.13;100625.75;5117718;27;45392;-80
2023/07/08 05:12:44;;;;;;;;;1.00;1.00;;;;;24.77;47.42;100632.78;5117896;27;45267;-80
2023/07/08 05:15:09;;;;;;;;;2.00;2.00;;;;;24.77;47.60;100629.19;5118383;27;45303;-79
2023/07/08 05:17:38;;;;;;;;;1.50;1.50;;;;;24.69;47.11;100620.03;5116346;27;47172;-80
2023/07/08 05:20:05;;;;;;;;;1.20;1.00;;;;;24.77;47.49;100623.75;5117512;27;45328;-78
2023/07/08 05:22:31;;;;;;;;;1.75;1.75;;;;;24.87;46.74;100611.66;5117753;27;45398;-80
2023/07/08 05:24:57;;;;;;;;;3.75;2.00;;;;;24.95;46.80;100619.75;5117662;27;45520;-81
2023/07/08 05:27:24;;;;;;;;;2.00;2.00;;;;;24.88;47.02;100623.38;5117555;27;45423;-78
2023/07/08 05:29:49;;;;;;;;;2.40;1.20;;;;;24.79;47.50;100629.88;5117411;27;45282;-81
2023/07/08 05:32:15;;;;;;;;;3.25;2.00;;;;;24.79;47.30;100641.59;5117431;27;45287;-80
2023/07/08 05:34:40;;;;;;;;;0.50;0.50;;;;;24.77;47.30;100651.81;5118030;27;45380;-81
2023/07/08 05:37:06;;;;;;;;;0.00;0.00;;;;;24.70;46.74;100657.09;5117474;27;46058;-78
2023/07/08 05:39:32;;;;;;;;;2.00;2.00;;;;;24.67;47.26;100671.03;5117581;27;45575;-80
2023/07/08 05:41:57;;;;;;;;;3.25;2.00;;;;;24.61;47.56;100673.59;5116184;27;45301;-80
2023/07/08 05:44:25;;;;;;;;;2.50;2.50;;;;;24.57;48.04;100673.09;5117628;27;45585;-82
2023/07/08 05:46:50;;;;;;;;;3.00;2.00;;;;;24.61;47.93;100688.06;5117096;27;45542;-79
2023/07/08 05:49:16;;;;;;;;;2.75;2.75;;;;;24.55;48.01;100686.03;5115941;27;45529;-80
2023/07/08 05:51:43;;;;;;;;;2.75;1.50;;;;;24.64;48.22;100693.16;5117745;27;45448;-81
2023/07/08 05:54:09;;;;;;;;;4.75;4.00;;;;;24.73;47.90;100695.84;5117586;27;45745;-79
2023/07/08 05:56:34;;;;;;;;;3.00;2.00;;;;;24.73;48.08;100706.72;5117227;27;49031;-84
2023/07/08 05:58:59;;;;;;;;;3.00;1.00;;;;;24.57;47.48;100688.56;5116106;27;45523;-80
2023/07/08 06:01:25;;;;;;;;;4.00;2.00;;;;;24.53;48.29;100685.38;5120518;27;49326;-81
2023/07/08 06:03:50;;;;;;;;;2.75;1.00;;;;;24.81;47.59;100703.97;5121096;27;45389;-80
2023/07/08 06:06:15;;;;;;;;;4.25;2.75;;;;;24.96;47.12;100686.72;5119412;27;46149;-79
2023/07/08 06:08:41;;;;;;;;;2.00;2.00;;;;;25.37;46.74;100721.09;5119594;27;45601;-79
2023/07/08 06:11:06;;;;;;;;;5.50;4.00;;;;;25.55;46.39;100725.25;5120728;27;45320;-80
2023/07/08 06:13:32;;;;;;;;;5.00;3.25;;;;;25.52;46.36;100722.00;5121027;27;45233;-80
2023/07/08 06:15:57;;;;;;;;;1.00;1.00;;;;;25.48;46.11;100731.56;5121062;27;45940;-79
2023/07/08 06:18:23;;;;;;;;;2.50;2.50;;;;;25.32;46.32;100729.81;5121023;27;49804;-80
2023/07/08 06:20:56;;;;;;;;;3.00;3.00;;;;;25.25;46.50;100753.31;5119202;27;45419;-79
2023/07/08 06:23:22;;;;;;;;;2.75;2.75;;;;;25.28;47.08;100755.69;5120648;27;45479;-79
2023/07/08 06:25:49;;;;;;;;;4.25;4.25;;;;;25.41;46.94;100757.84;5120521;27;46332;-79
2023/07/08 06:28:14;;;;;;;;;2.00;2.00;;;;;25.36;46.77;100752.06;5119207;27;45973;-79
2023/07/08 06:30:40;;;;;;;;;4.00;2.75;;;;;25.29;46.62;100731.00;5120331;27;45278;-79
2023/07/08 06:33:05;;;;;;;;;4.00;1.75;;;;;25.55;46.51;100776.16;5120588;27;45160;-80
2023/07/08 06:35:31;;;;;;;;;3.00;3.00;;;;;25.76;46.15;100762.75;5119022;27;46206;-80
2023/07/08 06:37:56;;;;;;;;;3.75;2.75;;;;;25.86;46.08;100747.00;5120100;27;45924;-79
2023/07/08 06:40:22;;;;;;;;;3.00;3.00;;;;;26.04;46.27;100768.53;5120260;27;45763;-81
2023/07/08 06:42:47;;;;;;;;;3.75;3.75;;;;;26.05;46.40;100769.38;5120272;27;45459;-80
2023/07/08 06:45:12;;;;;;;;;1.00;1.00;;;;;26.18;46.30;100761.44;5120329;27;46685;-80
2023/07/08 06:47:38;;;;;;;;;2.50;2.00;;;;;26.34;45.58;100782.25;5119859;27;45369;-79
2023/07/08 06:50:04;;;;;;;;;3.00;3.00;;;;;26.40;45.12;100785.09;5120180;27;45357;-78
2023/07/08 06:52:34;;;;;;;;;4.00;2.75;;;;;26.22;44.92;100751.84;5120323;27;45338;-81
2023/07/08 06:55:00;;;;;;;;;4.25;3.00;;;;;26.57;44.48;100761.28;5118589;27;47784;-80
2023/07/08 06:57:26;;;;;;;;;1.60;1.60;;;;;26.51;45.21;100772.91;5120190;27;45584;-80
2023/07/08 06:59:51;;;;;;;;;3.75;2.75;;;;;26.33;45.59;100775.94;5120096;27;45601;-80
2023/07/08 07:02:17;;;;;;;;;3.75;3.00;;;;;26.31;46.41;100791.66;5120290;27;45375;-80
2023/07/08 07:04:42;;;;;;;;;2.00;2.00;;;;;26.14;46.15;100779.16;5120452;27;45704;-82
2023/07/08 07:07:07;;;;;;;;;2.00;2.00;;;;;26.19;46.53;100798.56;5122638;27;45270;-83
2023/07/08 07:09:33;;;;;;;;;3.00;3.00;;;;;26.19;46.09;100798.56;5121325;27;45263;-81
2023/07/08 07:11:58;;;;;;;;;3.25;3.25;;;;;26.26;45.66;100804.97;5118570;27;45578;-81
2023/07/08 07:14:23;;;;;;;;;6.00;2.75;;;;;26.27;45.58;100801.22;5118743;27;46537;-81
2023/07/08 07:16:49;;;;;;;;;3.00;3.00;;;;;26.26;45.12;100807.69;5119674;27;45334;-79
2023/07/08 07:19:14;;;;;;;;;2.50;2.50;;;;;26.19;44.94;100790.38;5120042;27;45333;-79
2023/07/08 07:21:40;;;;;;;;;1.75;1.75;;;;;26.38;45.02;100813.59;5118335;27;45636;-79
2023/07/08 07:24:06;;;;;;;;;2.25;2.25;;;;;26.40;45.02;100815.09;5118123;27;46043;-81
2023/07/08 07:26:32;;;;;;;;;3.00;3.00;;;;;26.00;44.59;100737.19;5118229;27;45646;-80
2023/07/08 07:28:57;;;;;;;;;3.00;2.75;;;;;26.47;44.66;100808.94;5119651;27;45230;-80
2023/07/08 07:31:23;;;;;;;;;4.25;2.25;;;;;26.46;44.51;100799.91;5119587;27;45661;-81
2023/07/08 07:33:48;;;;;;;;;5.75;3.00;;;;;26.59;44.50;100811.03;5119745;27;45352;-81
2023/07/08 07:36:13;;;;;;;;;2.75;1.75;;;;;26.57;44.18;100801.34;5119296;27;45339;-82
2023/07/08 07:38:39;;;;;;;;;4.25;3.50;;;;;26.51;44.39;100791.16;5119151;27;45217;-81
2023/07/08 07:41:06;;;;;;;;;3.00;3.00;;;;;26.59;44.14;100815.63;5119276;27;45594;-79
2023/07/08 07:43:33;;;;;;;;;3.50;2.00;;;;;26.53;44.29;100800.00;5118863;27;46697;-84
2023/07/08 07:45:59;;;;;;;;;3.40;2.20;;;;;26.61;44.00;100798.06;5117764;27;45422;-81
2023/07/08 07:48:24;;;;;;;;;3.25;2.75;;;;;26.64;44.45;100791.38;5119169;27;45444;-80
2023/07/08 07:50:51;;;;;;;;;2.75;2.75;;;;;26.80;44.26;100810.28;5118070;27;45280;-80
2023/07/08 07:53:17;;;;;;;;;2.25;2.25;;;;;26.92;43.92;100814.25;5117690;27;46643;-80
2023/07/08 07:55:43;;;;;;;;;3.20;2.80;;;;;26.86;44.29;100795.91;5119022;27;45337;-83
2023/07/08 07:58:11;;;;;;;;;4.00;4.00;;;;;26.93;43.84;100799.56;5118831;27;45373;-80
2023/07/08 08:00:36;;;;;;;;;6.75;4.00;;;;;27.03;43.97;100815.72;5118946;27;45649;-82
2023/07/08 08:03:01;;;;;;;;;4.75;4.75;;;;;26.83;43.77;100779.94;5118965;27;46060;-82
2023/07/08 08:05:27;;;;;;;;;1.00;1.00;;;;;26.98;44.17;100809.97;5120500;27;45316;-80
2023/07/08 08:07:52;;;;;;;;;4.50;2.75;;;;;27.08;43.93;100831.53;5120988;27;45336;-80
2023/07/08 08:10:17;;;;;;;;;4.75;4.75;;;;;27.10;44.25;100824.88;5118506;27;45647;-87
2023/07/08 08:12:43;;;;;;;;;4.00;4.00;;;;;27.14;43.94;100814.41;5118949;27;46090;-81
2023/07/08 08:15:09;;;;;;;;;4.25;4.00;;;;;27.24;43.70;100828.63;5119209;27;45411;-83
2023/07/08 08:17:35;;;;;;;;;6.00;4.25;;;;;27.26;43.61;100827.41;5119008;27;45352;-80
2023/07/08 08:20:00;;;;;;;;;6.00;5.00;;;;;27.40;43.71;100836.63;5118745;27;45314;-82
2023/07/08 08:22:25;;;;;;;;;4.75;3.50;;;;;27.52;43.24;100835.09;5118037;27;45436;-84
2023/07/08 08:24:51;;;;;;;;;4.00;4.00;;;;;27.62;43.33;100841.13;5118607;27;45332;-83
2023/07/08 08:27:16;;;;;;;;;4.25;4.00;;;;;27.61;42.46;100831.22;5119812;27;45262;-84
2023/07/08 08:29:42;;;;;;;;;4.25;3.50;;;;;27.67;42.94;100845.19;5117958;27;45627;-86
2023/07/08 08:32:07;;;;;;;;;3.00;3.00;;;;;27.68;43.07;100849.59;5118848;27;46015;-87
2023/07/08 08:34:33;;;;;;;;;3.25;3.00;;;;;27.76;43.07;100858.56;5118538;27;45181;-86
2023/07/08 08:36:58;;;;;;;;;3.00;3.00;;;;;27.67;42.66;100826.91;5119179;27;45235;-83
2023/07/08 08:39:26;;;;;;;;;5.25;3.00;;;;;27.90;42.33;100857.66;5117579;27;45272;-80
2023/07/08 08:41:53;;;;;;;;;3.80;3.80;;;;;27.91;42.78;100853.91;5118220;27;46361;-80
2023/07/08 08:44:27;;;;;;;;;4.80;3.40;;;;;27.90;42.36;100834.97;5116852;27;45487;-80
2023/07/08 08:47:04;;;;;;;;;3.00;1.00;;;;;27.85;42.86;100829.22;5117428;27;45342;-82
2023/07/08 08:49:37;;;;;;;;;7.25;5.75;;;;;27.98;42.79;100833.97;5118210;27;45363;-80
2023/07/08 08:52:03;;;;;;;;;4.40;3.80;;;;;28.05;42.56;100821.25;5117831;27;45488;-82
2023/07/08 08:54:30;;;;;;;;;4.25;4.25;;;;;28.42;42.17;100861.19;5116684;27;45744;-80
2023/07/08 08:57:32;;;;;;;;;3.80;3.80;;;;;28.42;42.21;100862.03;5116717;27;45350;-83
2023/07/08 08:59:59;;;;;;;;;3.20;3.20;;;;;28.33;42.24;100848.69;5116612;27;45413;-82
2023/07/08 09:02:46;;;;;;;;;4.00;4.00;;;;;28.32;42.35;100858.78;5117960;27;45372;-83
2023/07/08 09:05:13;;;;;;;;;2.20;2.20;;;;;28.18;42.77;100846.84;5118091;27;45268;-81
2023/07/08 09:08:05;;;;;;;;;4.00;4.00;;;;;28.31;43.20;100864.44;5117890;27;45327;-82
2023/07/08 09:10:56;;;;;;;;;3.75;3.75;;;;;28.41;42.59;100862.25;5118383;27;45404;-84
2023/07/08 09:13:28;;;;;;;;;5.20;5.20;;;;;28.33;42.81;100855.00;5118450;27;45395;-84
2023/07/08 09:16:23;;;;;;;;;6.00;6.00;;;;;28.46;42.88;100870.69;5117884;27;45306;-80
2023/07/08 09:19:12;;;;;;;;;4.80;3.20;;;;;28.52;43.09;100875.41;5117861;27;45265;-81
2023/07/08 09:21:49;;;;;;;;;3.25;3.25;;;;;28.58;42.40;100866.41;5118701;27;45433;-85
2023/07/08 09:24:22;;;;;;;;;5.20;5.20;;;;;28.54;42.38;100848.69;5116525;27;47621;-86
2023/07/08 09:26:51;;;;;;;;;4.00;4.00;;;;;28.62;42.07;100864.09;5118000;27;45403;-83
2023/07/08 09:29:17;;;;;;;;;5.00;4.00;;;;;28.50;42.04;100822.75;5117837;27;45253;-80
2023/07/08 09:31:43;;;;;;;;;4.00;3.40;;;;;28.93;41.48;100861.88;5117804;27;45237;-81
2023/07/08 09:34:16;;;;;;;;;4.00;4.00;;;;;29.33;41.54;100868.47;5117097;27;45281;-80
2023/07/08 09:36:44;;;;;;;;;5.00;5.00;;;;;29.67;40.69;100870.34;5117453;27;45361;-80
2023/07/08 09:39:15;;;;;;;;;4.60;4.60;;;;;29.89;40.18;100854.63;5117073;27;45176;-80
2023/07/08 09:41:43;;;;;;;;;7.00;5.25;;;;;30.06;39.59;100867.97;5116261;27;45366;-80
2023/07/08 09:44:16;;;;;;;;;5.40;5.40;;;;;30.13;40.11;100871.59;5117047;27;45209;-81
2023/07/08 09:46:42;;;;;;;;;6.80;6.80;;;;;30.16;39.75;100865.69;5117454;27;45344;-82
2023/07/08 09:49:18;;;;;;;;;8.40;5.00;;;;;30.21;39.67;100877.75;5117280;27;45278;-83
2023/07/08 09:51:45;;;;;;;;;4.20;4.20;;;;;30.07;39.96;100869.66;5117586;27;45252;-86
2023/07/08 09:54:11;;;;;;;;;6.00;3.80;;;;;29.77;39.96;100853.50;5123509;27;45548;-80
2023/07/08 09:56:42;;;;;;;;;5.00;5.00;;;;;29.67;40.37;100864.00;5120430;27;45234;-82
2023/07/08 09:59:12;;;;;;;;;6.40;5.40;;;;;29.64;40.50;100858.94;5118223;27;45317;-82
2023/07/08 10:01:39;;;;;;;;;4.20;4.20;;;;;29.58;40.62;100848.81;5117896;27;45304;-83
2023/07/08 10:04:06;;;;;;;;;4.40;4.40;;;;;29.65;40.91;100855.16;5117089;27;46215;-81
2023/07/08 10:06:33;;;;;;;;;4.40;4.40;;;;;29.69;40.60;100850.09;5117004;27;45411;-84
2023/07/08 10:09:18;;;;;;;;;7.80;6.00;;;;;29.66;39.93;100852.19;5117462;27;45335;-83
2023/07/08 10:11:50;;;;;;;;;6.00;4.80;;;;;29.64;40.04;100854.31;5117006;27;45277;-80
2023/07/08 10:14:31;;;;;;;;;6.80;6.80;;;;;29.57;39.84;100841.66;5117154;27;45328;-80
2023/07/08 10:16:57;;;;;;;;;6.40;5.00;;;;;29.53;40.31;100835.69;5117070;27;45340;-83
2023/07/08 10:19:23;;;;;;;;;5.75;5.75;;;;;29.63;40.19;100851.78;5117988;27;45450;-86
2023/07/08 10:22:13;;;;;;;;;4.75;4.75;;;;;29.66;40.31;100848.63;5117371;27;45634;-86
2023/07/08 10:25:02;;;;;;;;;7.20;6.20;;;;;29.68;39.92;100846.50;5116786;27;45520;-82
2023/07/08 10:27:39;;;;;;;;;5.00;5.00;;;;;29.56;40.24;100846.28;5117139;27;45498;-80
2023/07/08 10:30:14;;;;;;;;;4.00;4.00;;;;;29.69;40.59;100850.97;5117084;27;45390;-80
2023/07/08 10:32:52;;;;;;;;;6.60;5.60;;;;;29.65;39.88;100838.69;5115824;27;45431;-82
2023/07/08 10:35:24;;;;;;;;;4.80;4.80;;;;;29.65;39.67;100844.19;5116925;27;46126;-81
2023/07/08 10:38:24;;;;;;;;;7.40;5.00;;;;;29.81;39.15;100862.16;5116621;27;45526;-81
2023/07/08 10:41:18;;;;;;;;;6.00;5.00;;;;;29.86;38.20;100863.25;5119069;27;45354;-82
2023/07/08 10:43:59;;;;;;;;;5.00;5.00;;;;;29.83;38.13;100855.44;5119305;27;45367;-85
2023/07/08 10:46:34;;;;;;;;;5.00;5.00;;;;;29.80;38.20;100857.75;5118692;27;45447;-83
2023/07/08 10:49:08;;;;;;;;;7.00;6.00;;;;;29.90;38.09;100864.53;5121633;27;45446;-83
2023/07/08 10:51:52;;;;;;;;;4.80;4.80;;;;;29.92;38.35;100862.41;5119428;27;45421;-80
2023/07/08 10:54:29;;;;;;;;;4.40;4.20;;;;;30.01;38.18;100859.50;5119591;27;45455;-83
2023/07/08 10:57:12;;;;;;;;;5.60;5.60;;;;;30.04;38.45;100851.69;5120036;27;46203;-85
2023/07/08 10:59:49;;;;;;;;;6.00;6.00;;;;;30.07;38.80;100861.44;5120136;27;45514;-84
2023/07/08 11:02:28;;;;;;;;;5.40;3.80;;;;;30.06;38.65;100862.50;5120296;27;45323;-82
2023/07/08 11:05:31;;;;;;;;;4.60;4.60;;;;;29.87;38.46;100837.53;5120507;27;45465;-83
2023/07/08 11:08:31;;;;;;;;;6.00;6.00;;;;;30.09;38.42;100859.38;5064001;27;46041;-81
2023/07/08 11:11:26;;;;;;;;;8.20;7.00;;;;;30.15;38.67;100842.06;5111350;27;45332;-85
2023/07/08 11:14:04;;;;;;;;;5.00;5.00;;;;;30.19;38.55;100846.91;5082886;27;45292;-83
2023/07/08 11:16:36;;;;;;;;;7.40;6.60;;;;;30.28;38.80;100844.81;5120920;27;45426;-83
2023/07/08 11:19:12;;;;;;;;;8.00;6.80;;;;;30.36;38.88;100844.63;5120116;27;45372;-81
2023/07/08 11:21:45;;;;;;;;;5.00;5.00;;;;;30.51;38.34;100834.28;5120371;27;45497;-81
2023/07/08 11:24:16;;;;;;;;;8.20;6.00;;;;;30.45;37.75;100813.16;5120352;27;45284;-83
2023/07/08 11:26:50;;;;;;;;;7.80;7.00;;;;;30.74;37.99;100835.81;5122380;27;45377;-84
2023/07/08 11:29:34;;;;;;;;;10.20;9.40;;;;;30.94;38.03;100831.13;5122135;27;45784;-81
2023/07/08 11:32:00;;;;;;;;;6.00;5.60;;;;;31.18;37.26;100828.75;5120117;27;45296;-82